Watrous, NM (87750)

5:27 AM MDT on July 30, 2014 (GMT -0600)
Las Vegas Municipal (KLVS) Elev 6877 ft | 35.65 °N, 105.14 °W | Change Station
Active Advisory: Flash Flood Watch

Current weather conditions updated 34 minutes ago

Clear
Clear
55 °F
Feels Like 55 °F
N
9
Wind Variable Wind from ENE

Today is forecast to be Warmer than yesterday. Showers and thunderstorms.

Today
High -- | Low -- °F
--% Chance of Precip.
Yesterday
High -- | Low -- °F
Precip. -- in
6:06 AM 8:06 PM
Waxing Crescent, 11% visible
Pressure 29.98 in
Visibility 10.0 miles
Clouds Clear
Dew Point 51 °F
Humidity 86%
Rainfall 0.00 in
Snow Depth Not available.
UV 0 out of 12
Pollen 4.70 out of 12
Air Quality Not available.
Flu Activity Not available.
METAR KLVS 301053Z AUTO 06008KT 10SM CLR 13/11 A3024 RMK AO2 SLP150 T01280106

More Conditions Fewer Conditions

Pressure 29.98 in
Visibility 10.0 miles
Clouds Clear
Dew Point 51 °F
Humidity 86%
Rainfall 0.00 in
Snow Depth Not available.
UV 0 out of 12
Pollen 4.70 out of 12
Air Quality Not available.
Flu Activity Not available.
METAR KLVS 301053Z AUTO 06008KT 10SM CLR 13/11 A3024 RMK AO2 SLP150 T01280106

More Conditions Fewer Conditions

10-Day Weather Forecast

Almanac

Astronomy

Jul. 30, 2014 Rise Set
Actual Time 6:06 AM MDT 8:06 PM MDT
Civil Twilight 5:37 AM MDT 8:34 PM MDT
Nautical Twilight 5:03 AM MDT 9:08 PM MDT
Astronomical Twilight 4:26 AM MDT 9:45 PM MDT
Moon 9:31 AM MDT 9:59 PM MDT
Length of Visible Light 14h 56m
Length of Day
13h 59m
Tomorrow will be 1m 40s shorter.
Waxing Crescent, 11% of the Moon is Illuminated
Today
Waxing Crescent
Aug 3
First Quarter
Aug 10
Full
Aug 17
Last Quarter
Aug 25
New

Today's Extremes

State Highs State Lows

Community

WunderPhotos

Upload Photos

1,739,039 photos uploaded!

Nearby

Snow Depth

Station Depth Elevation
Wesner Springs 2 in 11120 ft
Elk Cabin 112 in 8210 ft
Gallegos Peak 1 in 9800 ft
Santa Fe 2 in 11445 ft
Tolby 0 in 10180 ft

Earthquake Activity

City Distance Mag. Time & Date
No recent earthquake activity has been reported nearby.
Minimum magnitude displayed is 2.5.

Coastal Water Temperatures

Place Temperature
No Stations Reporting

Nearby Weather Stations

Station Location Temp. Dew Point Humidity Wind Precip. Elev Updated Type
Pendaries RV Resort, Rociada, NM 54.3 °F 50 °F 84% WNW  at  0.0 mph 0.00 in / hr 7750 ft 5:27 AM MDT Rapid Fire

Show More Stations Show Fewer Stations